Kirtley, Texas
Current Conditions -  °F | °C
As of 10:15 PM on Tuesday 27 Jan 2015 (Local Time) from K3T5 Reporting Station
Clear Clear  
Wind Chill: 53°   Ceiling: Unl
Heat Index: 53°   Visibility: 10mi
Dew Point: 47°   Wind: 0mph
Humidity: 80%   Direction: NA
Pressure: 30.12"   Gusts: NA
Location:  30.0743°N, 97.1141°W
Report Text: K3T5 280415Z AUTO 00000KT 10SM CLR 12/08 A3012 RMK AO2 T01160083
Loading
Personal Weather Stations






























Interactive Weather Map New forecast layout! Learn more

10-Day Weather Forecast

Advertisements
Track Severe Weather on mobile